Time;durP1;ratioP1;P1;durP2;ratioP2;P2;SDS_P1;SDS_P2;PMS_P1;PMS_P2;Temp;Humidity;BMP_temperature;BMP_pressure;BME280_temperature;BME280_humidity;BME280_pressure;Samples;Min_cycle;Max_cycle;Signal;HPM_P1;HPM_P2
2023/04/16 00:01:30;;;;;;;12.90;12.10;;;;;;;;;;4997001;28;20452;-67
2023/04/16 00:03:55;;;;;;;13.27;12.48;;;;;;;;;;4995075;28;20041;-65
2023/04/16 00:06:21;;;;;;;12.80;11.90;;;;;;;;;;4991007;28;20045;-66
2023/04/16 00:08:47;;;;;;;12.55;11.80;;;;;;;;;;4992282;28;20038;-65
2023/04/16 00:11:12;;;;;;;12.20;11.50;;;;;;;;;;4992478;28;20431;-66
2023/04/16 00:13:38;;;;;;;12.35;11.55;;;;;;;;;;4992132;28;20056;-66
2023/04/16 00:16:03;;;;;;;12.75;11.93;;;;;;;;;;4996388;28;20030;-66
2023/04/16 00:18:29;;;;;;;12.45;11.65;;;;;;;;;;4996718;28;20030;-66
2023/04/16 00:20:54;;;;;;;13.18;12.38;;;;;;;;;;4985876;28;20133;-66
2023/04/16 00:23:20;;;;;;;13.30;12.35;;;;;;;;;;4994344;28;20038;-65
2023/04/16 00:25:46;;;;;;;12.70;11.93;;;;;;;;;;4994832;28;20694;-66
2023/04/16 00:28:11;;;;;;;13.38;12.27;;;;;;;;;;4996744;28;20038;-66
2023/04/16 00:30:36;;;;;;;12.57;11.77;;;;;;;;;;4994153;28;20130;-67
2023/04/16 00:33:03;;;;;;;13.65;12.85;;;;;;;;;;4991313;28;20042;-66
2023/04/16 00:35:29;;;;;;;13.82;12.98;;;;;;;;;;4996101;28;20087;-61
2023/04/16 00:37:54;;;;;;;13.05;12.25;;;;;;;;;;4994961;28;20037;-60
2023/04/16 00:40:19;;;;;;;12.77;12.05;;;;;;;;;;4995791;28;20555;-61
2023/04/16 00:42:45;;;;;;;13.18;12.32;;;;;;;;;;4995072;28;20512;-61
2023/04/16 00:45:10;;;;;;;12.93;12.13;;;;;;;;;;4997959;28;20018;-65
2023/04/16 00:47:37;;;;;;;11.77;11.07;;;;;;;;;;4992124;28;20030;-65
2023/04/16 00:50:03;;;;;;;13.15;12.25;;;;;;;;;;4993525;28;20122;-65
2023/04/16 00:52:33;;;;;;;12.45;11.68;;;;;;;;;;4991860;28;20384;-64
2023/04/16 00:54:59;;;;;;;12.40;11.68;;;;;;;;;;4994433;28;20701;-64
2023/04/16 00:57:25;;;;;;;13.32;12.52;;;;;;;;;;4992332;28;20180;-64
2023/04/16 00:59:51;;;;;;;12.48;11.68;;;;;;;;;;4992994;28;20046;-64
2023/04/16 01:02:17;;;;;;;12.88;12.07;;;;;;;;;;4992272;28;20073;-66
2023/04/16 01:04:42;;;;;;;13.20;12.40;;;;;;;;;;4993411;28;20515;-66
2023/04/16 01:07:08;;;;;;;13.30;12.40;;;;;;;;;;4995006;28;20084;-67
2023/04/16 01:09:33;;;;;;;13.20;12.40;;;;;;;;;;4992374;28;20046;-67
2023/04/16 01:11:58;;;;;;;13.75;12.95;;;;;;;;;;4994198;28;20579;-65
2023/04/16 01:14:24;;;;;;;12.35;11.60;;;;;;;;;;4994412;28;20049;-65
2023/04/16 01:16:49;;;;;;;13.18;12.38;;;;;;;;;;4995191;28;20036;-66
2023/04/16 01:19:14;;;;;;;13.75;12.95;;;;;;;;;;4993576;28;20085;-65
2023/04/16 01:21:40;;;;;;;12.95;12.02;;;;;;;;;;4992805;28;20037;-65
2023/04/16 01:24:05;;;;;;;14.15;13.25;;;;;;;;;;4993725;28;20042;-66
2023/04/16 01:26:31;;;;;;;12.95;12.15;;;;;;;;;;4995669;28;20045;-66
2023/04/16 01:28:57;;;;;;;13.65;12.70;;;;;;;;;;4997630;28;20042;-66
2023/04/16 01:31:22;;;;;;;14.55;13.70;;;;;;;;;;4998011;28;20041;-68
2023/04/16 01:33:47;;;;;;;12.98;12.18;;;;;;;;;;4998237;28;20089;-68
2023/04/16 01:36:13;;;;;;;13.10;12.30;;;;;;;;;;4997847;28;20054;-67
2023/04/16 01:38:38;;;;;;;13.05;12.25;;;;;;;;;;4996917;28;20095;-67
2023/04/16 01:41:03;;;;;;;14.65;13.75;;;;;;;;;;4998798;28;20408;-66
2023/04/16 01:43:29;;;;;;;13.50;12.60;;;;;;;;;;4994270;28;20072;-66
2023/04/16 01:46:11;;;;;;;14.35;13.35;;;;;;;;;;4996689;28;20125;-67
2023/04/16 01:48:36;;;;;;;13.25;12.45;;;;;;;;;;4991852;28;20042;-67
2023/04/16 01:51:03;;;;;;;13.40;12.60;;;;;;;;;;4995724;28;20042;-66
2023/04/16 01:53:29;;;;;;;12.25;11.55;;;;;;;;;;4996756;28;20532;-66
2023/04/16 01:55:54;;;;;;;12.43;11.73;;;;;;;;;;4995733;28;20141;-65
2023/04/16 01:58:20;;;;;;;12.93;12.13;;;;;;;;;;4997871;28;20072;-65
2023/04/16 02:00:45;;;;;;;14.52;13.63;;;;;;;;;;4997711;28;20042;-65
2023/04/16 02:03:10;;;;;;;13.95;13.05;;;;;;;;;;4996118;28;20491;-65
2023/04/16 02:05:36;;;;;;;13.23;12.32;;;;;;;;;;4998016;28;20152;-65
2023/04/16 02:08:01;;;;;;;13.38;12.57;;;;;;;;;;4998293;28;20124;-65
2023/04/16 02:10:26;;;;;;;13.38;12.52;;;;;;;;;;4997523;28;20041;-65
2023/04/16 02:12:52;;;;;;;12.75;11.98;;;;;;;;;;4997408;28;20046;-66
2023/04/16 02:15:17;;;;;;;12.85;11.98;;;;;;;;;;4995170;28;20038;-65
2023/04/16 02:17:42;;;;;;;12.23;11.50;;;;;;;;;;4997583;28;20038;-65
2023/04/16 02:20:09;;;;;;;13.23;12.43;;;;;;;;;;4998925;28;20038;-61
2023/04/16 02:22:35;;;;;;;13.25;12.45;;;;;;;;;;4996842;28;20064;-61
2023/04/16 02:25:00;;;;;;;13.43;12.63;;;;;;;;;;4998538;28;20037;-61
2023/04/16 02:27:25;;;;;;;13.45;12.65;;;;;;;;;;4996991;28;20046;-60
2023/04/16 02:29:51;;;;;;;13.00;12.20;;;;;;;;;;4995992;28;20372;-61
2023/04/16 02:32:17;;;;;;;14.35;13.07;;;;;;;;;;4995310;28;20057;-66
2023/04/16 02:34:42;;;;;;;12.82;12.13;;;;;;;;;;4997012;28;20030;-65
2023/04/16 02:37:07;;;;;;;12.93;12.13;;;;;;;;;;4997834;28;20042;-66
2023/04/16 02:39:33;;;;;;;13.70;12.73;;;;;;;;;;4993031;28;20034;-67
2023/04/16 02:41:59;;;;;;;13.45;12.65;;;;;;;;;;4996909;28;20038;-65
2023/04/16 02:44:25;;;;;;;13.80;13.00;;;;;;;;;;4995286;28;20101;-66
2023/04/16 02:46:50;;;;;;;12.73;11.98;;;;;;;;;;4997465;28;20034;-67
2023/04/16 02:49:15;;;;;;;13.55;12.75;;;;;;;;;;4996293;28;20034;-65
2023/04/16 02:51:41;;;;;;;13.40;12.60;;;;;;;;;;4993490;28;20902;-66
2023/04/16 02:54:06;;;;;;;13.07;12.20;;;;;;;;;;4996718;28;20030;-65
2023/04/16 02:56:31;;;;;;;12.90;12.10;;;;;;;;;;4994871;28;20087;-65
2023/04/16 02:58:57;;;;;;;12.45;11.65;;;;;;;;;;4991439;28;20514;-66
2023/04/16 03:01:22;;;;;;;13.98;13.07;;;;;;;;;;4991938;28;20430;-66
2023/04/16 03:03:47;;;;;;;13.77;12.98;;;;;;;;;;5026747;28;20069;-66
2023/04/16 03:06:13;;;;;;;13.35;12.55;;;;;;;;;;4996678;28;20026;-67
2023/04/16 03:08:38;;;;;;;14.90;13.90;;;;;;;;;;4997685;28;20034;-65
2023/04/16 03:11:03;;;;;;;14.88;13.95;;;;;;;;;;4995523;28;20069;-65
2023/04/16 03:13:29;;;;;;;14.18;13.35;;;;;;;;;;5022746;28;20104;-65
2023/04/16 03:15:54;;;;;;;12.70;11.93;;;;;;;;;;4997133;28;20057;-66
2023/04/16 03:18:20;;;;;;;14.05;13.15;;;;;;;;;;4997154;28;20121;-66
2023/04/16 03:20:50;;;;;;;12.88;12.07;;;;;;;;;;4994705;28;20030;-66
2023/04/16 03:23:15;;;;;;;14.45;13.45;;;;;;;;;;5001652;28;20105;-65
2023/04/16 03:25:42;;;;;;;13.07;12.27;;;;;;;;;;4994885;28;20411;-65
2023/04/16 03:28:07;;;;;;;13.98;13.18;;;;;;;;;;4995697;28;20034;-65
2023/04/16 03:30:33;;;;;;;13.82;13.00;;;;;;;;;;4995210;28;20216;-66
2023/04/16 03:32:58;;;;;;;14.13;13.23;;;;;;;;;;4996794;28;20042;-65
2023/04/16 03:35:23;;;;;;;13.15;12.27;;;;;;;;;;4994214;28;20144;-64
2023/04/16 03:37:49;;;;;;;14.48;13.48;;;;;;;;;;5028800;28;20074;-65
2023/04/16 03:40:14;;;;;;;13.93;13.02;;;;;;;;;;4996765;28;20057;-65
2023/04/16 03:42:39;;;;;;;14.93;13.93;;;;;;;;;;4992311;28;20034;-66
2023/04/16 03:45:05;;;;;;;14.18;13.38;;;;;;;;;;4994528;28;20121;-65
2023/04/16 03:47:31;;;;;;;14.32;13.48;;;;;;;;;;4993009;28;20038;-61
2023/04/16 03:49:56;;;;;;;13.43;12.63;;;;;;;;;;4994960;28;20038;-61
2023/04/16 03:52:21;;;;;;;13.00;12.20;;;;;;;;;;4994863;28;20535;-60
2023/04/16 03:54:47;;;;;;;13.80;13.00;;;;;;;;;;4994248;28;20527;-61
2023/04/16 03:57:12;;;;;;;13.52;12.73;;;;;;;;;;4996518;28;20046;-61
2023/04/16 03:59:37;;;;;;;13.55;12.75;;;;;;;;;;4995391;28;20048;-61
2023/04/16 04:02:03;;;;;;;13.07;12.27;;;;;;;;;;4994500;28;20034;-61
2023/04/16 04:04:28;;;;;;;13.60;12.80;;;;;;;;;;4996123;28;20096;-62
2023/04/16 04:06:53;;;;;;;13.82;12.57;;;;;;;;;;4994060;28;20054;-62
2023/04/16 04:09:19;;;;;;;13.15;12.35;;;;;;;;;;4995346;28;20116;-61
2023/04/16 04:11:44;;;;;;;14.85;13.85;;;;;;;;;;4990766;28;20049;-61
2023/04/16 04:14:09;;;;;;;13.32;12.52;;;;;;;;;;4994672;28;20508;-61
2023/04/16 04:16:35;;;;;;;14.00;12.90;;;;;;;;;;5027184;28;20043;-61
2023/04/16 04:19:00;;;;;;;13.38;12.48;;;;;;;;;;4993523;28;20045;-61
2023/04/16 04:21:27;;;;;;;12.95;12.15;;;;;;;;;;4995006;28;20041;-62
2023/04/16 04:23:52;;;;;;;14.13;13.00;;;;;;;;;;4993361;28;20034;-62
2023/04/16 04:26:18;;;;;;;13.65;12.75;;;;;;;;;;4993263;28;20044;-61
2023/04/16 04:28:43;;;;;;;14.27;13.38;;;;;;;;;;4995812;28;20464;-62
2023/04/16 04:31:08;;;;;;;14.13;13.23;;;;;;;;;;5027336;28;20097;-61
2023/04/16 04:33:34;;;;;;;14.35;13.48;;;;;;;;;;4994354;28;20350;-61
2023/04/16 04:35:59;;;;;;;15.52;14.63;;;;;;;;;;4996901;28;20058;-61
2023/04/16 04:38:25;;;;;;;13.25;12.48;;;;;;;;;;4992457;28;20045;-61
2023/04/16 04:40:51;;;;;;;13.43;12.63;;;;;;;;;;4994585;28;20060;-62
2023/04/16 04:43:18;;;;;;;15.55;14.55;;;;;;;;;;5030561;28;20133;-61
2023/04/16 04:45:43;;;;;;;13.82;12.98;;;;;;;;;;4994327;28;20037;-61
2023/04/16 04:48:08;;;;;;;12.98;12.13;;;;;;;;;;4993550;28;20041;-61
2023/04/16 04:50:34;;;;;;;13.25;12.43;;;;;;;;;;4994310;28;20475;-62
2023/04/16 04:53:00;;;;;;;15.15;14.10;;;;;;;;;;4993797;28;20038;-61
2023/04/16 04:55:25;;;;;;;12.73;11.85;;;;;;;;;;4993597;28;20486;-61
2023/04/16 04:57:50;;;;;;;12.43;11.63;;;;;;;;;;4993556;28;20038;-62
2023/04/16 05:00:16;;;;;;;13.25;12.43;;;;;;;;;;4993764;28;20042;-62
2023/04/16 05:02:41;;;;;;;14.40;13.52;;;;;;;;;;4996436;28;20038;-61
2023/04/16 05:05:07;;;;;;;12.77;12.02;;;;;;;;;;4999025;28;20033;-62
2023/04/16 05:07:32;;;;;;;13.20;12.40;;;;;;;;;;4997561;28;20045;-61
2023/04/16 05:09:58;;;;;;;14.07;13.25;;;;;;;;;;5000157;28;20044;-62
2023/04/16 05:12:23;;;;;;;14.65;13.80;;;;;;;;;;5000071;28;20212;-62
2023/04/16 05:14:49;;;;;;;13.77;12.95;;;;;;;;;;5000487;28;20120;-65
2023/04/16 05:17:14;;;;;;;13.10;12.30;;;;;;;;;;4996316;28;20042;-68
2023/04/16 05:19:39;;;;;;;15.15;14.00;;;;;;;;;;4999035;28;20520;-63
2023/04/16 05:22:05;;;;;;;13.38;12.57;;;;;;;;;;4996058;28;20042;-63
2023/04/16 05:24:30;;;;;;;13.27;12.43;;;;;;;;;;4995298;28;20548;-63
2023/04/16 05:26:56;;;;;;;14.90;13.43;;;;;;;;;;4996733;28;20042;-64
2023/04/16 05:29:22;;;;;;;14.15;13.05;;;;;;;;;;4995529;28;20056;-65
2023/04/16 05:31:47;;;;;;;14.45;13.55;;;;;;;;;;4997478;28;20116;-65
2023/04/16 05:34:13;;;;;;;13.45;12.40;;;;;;;;;;4997149;28;20456;-66
2023/04/16 05:36:38;;;;;;;13.48;12.68;;;;;;;;;;4997752;28;20049;-65
2023/04/16 05:39:03;;;;;;;14.02;13.18;;;;;;;;;;4994689;28;20152;-65
2023/04/16 05:41:29;;;;;;;14.88;13.98;;;;;;;;;;4996325;28;20050;-65
2023/04/16 05:43:54;;;;;;;13.43;12.63;;;;;;;;;;4999261;28;20041;-64
2023/04/16 05:46:19;;;;;;;13.65;12.85;;;;;;;;;;4997399;28;20116;-62
2023/04/16 05:48:45;;;;;;;13.85;13.02;;;;;;;;;;4998649;28;20050;-64
2023/04/16 05:51:10;;;;;;;13.18;12.27;;;;;;;;;;5029218;28;20531;-63
2023/04/16 05:53:36;;;;;;;13.50;12.70;;;;;;;;;;5002685;28;20073;-63
2023/04/16 05:56:01;;;;;;;13.38;12.55;;;;;;;;;;4993441;28;20128;-64
2023/04/16 05:58:27;;;;;;;13.85;12.95;;;;;;;;;;4997757;28;20045;-63
2023/04/16 06:00:52;;;;;;;13.15;12.35;;;;;;;;;;4996878;28;20049;-63
2023/04/16 06:03:17;;;;;;;14.05;13.15;;;;;;;;;;4995876;28;20053;-64
2023/04/16 06:05:43;;;;;;;14.38;13.52;;;;;;;;;;4997425;28;20065;-64
2023/04/16 06:08:09;;;;;;;14.85;13.95;;;;;;;;;;4996198;28;20037;-65
2023/04/16 06:10:34;;;;;;;14.25;13.35;;;;;;;;;;4997115;28;20380;-64
2023/04/16 06:12:59;;;;;;;14.32;13.45;;;;;;;;;;4998413;28;20356;-64
2023/04/16 06:15:25;;;;;;;13.95;13.05;;;;;;;;;;4998103;28;20133;-64
2023/04/16 06:17:50;;;;;;;13.18;12.38;;;;;;;;;;4998444;28;20045;-64
2023/04/16 06:20:15;;;;;;;14.57;13.63;;;;;;;;;;4999241;28;20362;-64
2023/04/16 06:22:41;;;;;;;14.15;12.95;;;;;;;;;;4997464;28;20121;-65
2023/04/16 06:25:07;;;;;;;15.65;14.55;;;;;;;;;;4996184;28;20096;-65
2023/04/16 06:27:32;;;;;;;12.82;12.05;;;;;;;;;;5000768;28;20033;-65
2023/04/16 06:29:57;;;;;;;15.15;14.25;;;;;;;;;;4999472;28;20026;-63
2023/04/16 06:32:23;;;;;;;14.23;13.32;;;;;;;;;;4995529;28;20451;-64
2023/04/16 06:34:49;;;;;;;16.50;15.25;;;;;;;;;;4997467;28;20060;-66
2023/04/16 06:37:15;;;;;;;14.07;13.18;;;;;;;;;;5000608;28;20117;-63
2023/04/16 06:39:40;;;;;;;14.27;13.38;;;;;;;;;;4997531;28;20463;-64
2023/04/16 06:42:05;;;;;;;14.02;12.98;;;;;;;;;;4997104;28;20069;-64
2023/04/16 06:44:31;;;;;;;13.63;12.82;;;;;;;;;;4996367;28;20050;-64
2023/04/16 06:46:56;;;;;;;13.77;12.98;;;;;;;;;;4995825;28;20137;-64
2023/04/16 06:49:22;;;;;;;14.05;13.25;;;;;;;;;;4995118;28;20061;-64
2023/04/16 06:51:47;;;;;;;13.85;13.05;;;;;;;;;;4996342;28;20030;-64
2023/04/16 06:54:12;;;;;;;15.73;14.60;;;;;;;;;;5025867;28;20419;-64
2023/04/16 06:56:38;;;;;;;13.63;12.82;;;;;;;;;;4995309;28;20072;-64
2023/04/16 06:59:03;;;;;;;14.48;13.60;;;;;;;;;;4995025;28;20527;-64
2023/04/16 07:01:30;;;;;;;14.73;13.82;;;;;;;;;;4985889;28;20480;-64
2023/04/16 07:03:56;;;;;;;15.30;14.30;;;;;;;;;;4994303;28;20038;-61
2023/04/16 07:06:21;;;;;;;14.05;13.15;;;;;;;;;;4997466;28;20532;-61
2023/04/16 07:08:47;;;;;;;14.25;13.35;;;;;;;;;;4997480;28;20036;-61
2023/04/16 07:11:12;;;;;;;14.70;13.70;;;;;;;;;;4992766;28;20049;-61
2023/04/16 07:13:38;;;;;;;13.88;12.93;;;;;;;;;;4995597;28;20050;-60
2023/04/16 07:16:03;;;;;;;14.85;13.85;;;;;;;;;;4995972;28;20104;-59
2023/04/16 07:18:29;;;;;;;14.70;13.82;;;;;;;;;;4997345;28;20552;-60
2023/04/16 07:20:54;;;;;;;15.20;14.30;;;;;;;;;;4995578;28;20752;-60
2023/04/16 07:23:20;;;;;;;15.13;14.23;;;;;;;;;;4994664;28;20046;-62
2023/04/16 07:25:45;;;;;;;14.55;13.65;;;;;;;;;;4994209;28;20411;-62
2023/04/16 07:28:10;;;;;;;14.75;13.85;;;;;;;;;;4996838;28;20037;-63
2023/04/16 07:30:36;;;;;;;16.83;15.75;;;;;;;;;;4994468;28;20054;-62
2023/04/16 07:33:02;;;;;;;14.73;13.82;;;;;;;;;;4994542;28;20057;-62
2023/04/16 07:35:29;;;;;;;15.45;14.43;;;;;;;;;;4996326;28;20444;-62
2023/04/16 07:37:54;;;;;;;16.33;15.23;;;;;;;;;;4995964;28;20120;-62
2023/04/16 07:40:19;;;;;;;14.32;13.52;;;;;;;;;;4996544;28;20041;-62
2023/04/16 07:42:45;;;;;;;14.40;13.50;;;;;;;;;;4995637;28;20029;-61
2023/04/16 07:45:10;;;;;;;15.40;13.98;;;;;;;;;;4994629;28;20037;-62
2023/04/16 07:47:36;;;;;;;15.32;14.18;;;;;;;;;;4994493;28;20034;-63
2023/04/16 07:50:01;;;;;;;13.98;13.18;;;;;;;;;;4996485;28;20029;-63
2023/04/16 07:52:26;;;;;;;13.98;13.07;;;;;;;;;;4995420;28;20345;-62
2023/04/16 07:54:52;;;;;;;14.73;13.82;;;;;;;;;;4995285;28;20775;-62
2023/04/16 07:57:17;;;;;;;16.13;15.13;;;;;;;;;;4994457;28;20030;-62
2023/04/16 07:59:42;;;;;;;13.93;12.93;;;;;;;;;;4994646;28;20065;-62
2023/04/16 08:02:13;;;;;;;14.75;13.85;;;;;;;;;;4996211;28;20034;-62
2023/04/16 08:04:38;;;;;;;14.35;13.55;;;;;;;;;;4995347;28;20042;-62
2023/04/16 08:07:03;;;;;;;13.70;12.90;;;;;;;;;;4995405;28;20483;-62
2023/04/16 08:09:29;;;;;;;14.77;13.88;;;;;;;;;;4995196;28;20168;-62
2023/04/16 08:11:54;;;;;;;14.15;13.30;;;;;;;;;;4996061;28;20049;-62
2023/04/16 08:14:20;;;;;;;14.90;13.98;;;;;;;;;;4992044;28;20052;-61
2023/04/16 08:16:46;;;;;;;14.27;13.48;;;;;;;;;;4994084;28;20041;-62
2023/04/16 08:19:11;;;;;;;14.48;13.52;;;;;;;;;;4996093;28;20042;-62
2023/04/16 08:21:36;;;;;;;14.95;13.98;;;;;;;;;;4993534;28;20038;-62
2023/04/16 08:24:02;;;;;;;14.57;13.68;;;;;;;;;;4993457;28;20038;-62
2023/04/16 08:26:27;;;;;;;14.48;13.57;;;;;;;;;;4994836;28;20030;-66
2023/04/16 08:28:52;;;;;;;14.65;13.75;;;;;;;;;;4997158;28;20073;-67
2023/04/16 08:31:18;;;;;;;13.55;12.75;;;;;;;;;;4995841;28;20045;-65
2023/04/16 08:33:43;;;;;;;12.98;12.18;;;;;;;;;;4993044;28;20522;-66
2023/04/16 08:36:09;;;;;;;13.20;12.32;;;;;;;;;;4995399;28;20118;-62
2023/04/16 08:38:34;;;;;;;13.43;12.63;;;;;;;;;;4991483;28;20034;-62
2023/04/16 08:41:04;;;;;;;13.02;12.23;;;;;;;;;;4992382;28;20092;-62
2023/04/16 08:43:32;;;;;;;13.80;13.00;;;;;;;;;;4991952;28;20052;-63
2023/04/16 08:45:59;;;;;;;13.20;12.40;;;;;;;;;;5024802;28;20276;-61
2023/04/16 08:48:31;;;;;;;13.13;12.32;;;;;;;;;;4994764;28;20559;-61
2023/04/16 08:50:59;;;;;;;14.27;13.45;;;;;;;;;;4993536;28;20124;-62
2023/04/16 08:53:34;;;;;;;12.80;12.00;;;;;;;;;;4996403;28;20034;-61
2023/04/16 08:56:03;;;;;;;14.20;13.10;;;;;;;;;;4997892;28;20081;-61
2023/04/16 08:58:32;;;;;;;13.93;13.02;;;;;;;;;;4995201;28;20034;-62
2023/04/16 09:00:58;;;;;;;13.38;12.57;;;;;;;;;;4996563;28;20150;-62
2023/04/16 09:03:24;;;;;;;14.73;13.82;;;;;;;;;;4995048;28;20475;-61
2023/04/16 09:05:50;;;;;;;12.77;11.98;;;;;;;;;;4995250;28;20065;-61
2023/04/16 09:08:16;;;;;;;14.15;13.20;;;;;;;;;;4992235;28;20044;-61
2023/04/16 09:10:42;;;;;;;11.57;10.88;;;;;;;;;;4992910;28;20038;-61
2023/04/16 09:13:10;;;;;;;12.68;11.88;;;;;;;;;;4991144;28;20069;-62
2023/04/16 09:15:36;;;;;;;12.52;11.73;;;;;;;;;;4992935;28;20035;-62
2023/04/16 09:18:02;;;;;;;13.38;12.57;;;;;;;;;;4993590;28;20053;-61
2023/04/16 09:20:27;;;;;;;12.65;11.85;;;;;;;;;;4992793;28;20042;-61
2023/04/16 09:22:52;;;;;;;12.68;11.88;;;;;;;;;;4995184;28;20041;-61
2023/04/16 09:25:20;;;;;;;12.20;11.40;;;;;;;;;;4995859;28;20034;-61
2023/04/16 09:27:48;;;;;;;13.32;12.43;;;;;;;;;;4992026;28;20037;-61
2023/04/16 09:30:24;;;;;;;12.60;11.80;;;;;;;;;;4998926;28;20061;-61
2023/04/16 09:32:51;;;;;;;13.65;12.75;;;;;;;;;;5022688;28;20033;-61
2023/04/16 09:35:18;;;;;;;13.23;12.43;;;;;;;;;;4992841;28;20044;-61
2023/04/16 09:37:54;;;;;;;12.52;11.73;;;;;;;;;;4997569;28;20049;-61
2023/04/16 09:40:24;;;;;;;13.02;12.15;;;;;;;;;;4993454;28;20037;-61
2023/04/16 09:42:51;;;;;;;12.90;12.10;;;;;;;;;;4992966;28;20022;-62
2023/04/16 09:45:16;;;;;;;14.13;13.13;;;;;;;;;;4993440;28;20031;-62
2023/04/16 09:47:43;;;;;;;12.63;11.82;;;;;;;;;;4993877;28;20030;-61
2023/04/16 09:50:13;;;;;;;12.10;11.32;;;;;;;;;;4995510;28;20033;-62
2023/04/16 09:52:41;;;;;;;12.40;11.60;;;;;;;;;;4998790;28;20033;-62
2023/04/16 09:55:07;;;;;;;12.65;11.75;;;;;;;;;;4996024;28;20861;-63
2023/04/16 09:57:36;;;;;;;11.93;11.13;;;;;;;;;;4994238;28;20040;-62
2023/04/16 10:00:05;;;;;;;14.00;12.98;;;;;;;;;;5013660;28;20388;-62
2023/04/16 10:02:31;;;;;;;12.48;11.68;;;;;;;;;;4992543;28;20464;-62
2023/04/16 10:05:00;;;;;;;12.05;11.35;;;;;;;;;;4996910;28;20536;-62
2023/04/16 10:07:28;;;;;;;12.60;11.80;;;;;;;;;;4994407;28;20058;-62
2023/04/16 10:09:54;;;;;;;12.07;11.27;;;;;;;;;;4998525;28;20037;-63
2023/04/16 10:12:20;;;;;;;12.27;11.48;;;;;;;;;;4998260;28;20061;-62
2023/04/16 10:14:46;;;;;;;12.07;11.38;;;;;;;;;;4997788;28;20121;-63
2023/04/16 10:17:11;;;;;;;12.27;11.30;;;;;;;;;;4995975;28;20037;-63
2023/04/16 10:19:37;;;;;;;11.07;10.38;;;;;;;;;;4997117;28;20041;-66
2023/04/16 10:22:03;;;;;;;11.75;11.05;;;;;;;;;;5026324;28;20038;-66
2023/04/16 10:24:30;;;;;;;11.75;11.05;;;;;;;;;;4996731;28;20030;-66
2023/04/16 10:26:56;;;;;;;12.65;11.75;;;;;;;;;;4996543;28;20049;-68
2023/04/16 10:29:22;;;;;;;11.32;10.63;;;;;;;;;;4997148;28;20042;-68
2023/04/16 10:31:49;;;;;;;10.95;10.23;;;;;;;;;;4996958;28;20038;-67
2023/04/16 10:34:15;;;;;;;10.75;10.00;;;;;;;;;;4998096;28;20379;-67
2023/04/16 10:36:41;;;;;;;11.73;10.98;;;;;;;;;;5004258;28;20049;-67
2023/04/16 10:39:11;;;;;;;11.52;10.82;;;;;;;;;;4999725;28;20034;-67
2023/04/16 10:41:37;;;;;;;12.07;11.30;;;;;;;;;;5000011;28;20546;-67
2023/04/16 10:44:11;;;;;;;13.25;12.32;;;;;;;;;;5003017;28;20065;-68
2023/04/16 10:46:39;;;;;;;12.98;12.07;;;;;;;;;;5001929;28;20026;-67
2023/04/16 10:49:18;;;;;;;14.45;13.07;;;;;;;;;;4992925;28;20132;-67
2023/04/16 10:51:57;;;;;;;14.18;12.77;;;;;;;;;;4998028;28;20651;-68
2023/04/16 10:54:28;;;;;;;12.38;11.57;;;;;;;;;;5001478;28;20621;-67
2023/04/16 10:56:56;;;;;;;16.20;14.90;;;;;;;;;;4998344;28;20402;-64
2023/04/16 10:59:23;;;;;;;16.98;15.30;;;;;;;;;;4997615;28;20038;-66
2023/04/16 11:01:54;;;;;;;14.00;12.95;;;;;;;;;;4995927;28;20036;-67
2023/04/16 11:04:22;;;;;;;12.90;12.00;;;;;;;;;;4996188;28;20039;-65
2023/04/16 11:07:10;;;;;;;13.05;11.88;;;;;;;;;;4991394;28;20037;-65
2023/04/16 11:10:04;;;;;;;12.48;11.68;;;;;;;;;;4996140;28;20070;-68
2023/04/16 11:12:49;;;;;;;12.40;11.60;;;;;;;;;;5024523;28;20818;-67
2023/04/16 11:15:16;;;;;;;12.30;11.50;;;;;;;;;;4991211;28;20046;-66
2023/04/16 11:17:45;;;;;;;12.68;11.88;;;;;;;;;;4992516;28;20038;-67
2023/04/16 11:20:24;;;;;;;13.07;12.18;;;;;;;;;;4993579;28;20216;-67
2023/04/16 11:22:52;;;;;;;11.40;10.70;;;;;;;;;;4994592;28;20034;-68
2023/04/16 11:25:28;;;;;;;12.05;11.07;;;;;;;;;;5025905;28;20034;-67
2023/04/16 11:27:54;;;;;;;13.10;12.25;;;;;;;;;;4997232;28;20042;-67
2023/04/16 11:30:32;;;;;;;11.40;10.60;;;;;;;;;;4992669;28;20419;-66
2023/04/16 11:32:57;;;;;;;12.95;12.05;;;;;;;;;;4996190;28;20037;-66
2023/04/16 11:35:23;;;;;;;14.35;13.18;;;;;;;;;;4992592;28;20850;-67
2023/04/16 11:37:48;;;;;;;12.63;11.73;;;;;;;;;;4994857;28;20042;-68
2023/04/16 11:40:14;;;;;;;13.63;12.63;;;;;;;;;;5000434;28;20033;-68
2023/04/16 11:42:40;;;;;;;12.48;11.68;;;;;;;;;;4995202;28;20038;-68
2023/04/16 11:45:08;;;;;;;13.45;12.52;;;;;;;;;;4996406;28;20049;-68
2023/04/16 11:47:50;;;;;;;12.88;12.07;;;;;;;;;;4991791;28;20471;-67
2023/04/16 11:50:24;;;;;;;13.27;12.27;;;;;;;;;;4993932;28;20037;-68
2023/04/16 11:52:51;;;;;;;13.50;12.60;;;;;;;;;;4995531;28;20039;-68
2023/04/16 11:55:16;;;;;;;13.43;12.52;;;;;;;;;;4994286;28;20038;-69
2023/04/16 11:57:42;;;;;;;22.77;13.27;;;;;;;;;;4993686;28;20041;-70
2023/04/16 12:00:12;;;;;;;12.95;12.05;;;;;;;;;;4994828;28;20091;-69
2023/04/16 12:02:42;;;;;;;12.45;11.65;;;;;;;;;;4993462;28;20034;-69
2023/04/16 12:05:27;;;;;;;13.70;12.80;;;;;;;;;;5026502;28;20486;-68
2023/04/16 12:07:54;;;;;;;13.00;12.07;;;;;;;;;;4997027;28;20036;-67
2023/04/16 12:10:19;;;;;;;14.25;13.23;;;;;;;;;;4993356;28;20033;-67
2023/04/16 12:12:45;;;;;;;13.52;12.57;;;;;;;;;;4993183;28;20034;-71
2023/04/16 12:15:10;;;;;;;12.20;11.40;;;;;;;;;;4994241;28;20072;-70
2023/04/16 12:17:37;;;;;;;12.95;12.13;;;;;;;;;;4994724;28;20404;-67
2023/04/16 12:20:08;;;;;;;12.07;11.30;;;;;;;;;;4994193;28;20628;-67
2023/04/16 12:22:35;;;;;;;12.60;11.70;;;;;;;;;;5024784;28;20022;-66
2023/04/16 12:25:02;;;;;;;13.30;12.40;;;;;;;;;;4994175;28;20582;-68
2023/04/16 12:27:54;;;;;;;13.30;12.40;;;;;;;;;;4995937;28;20091;-68
2023/04/16 12:30:25;;;;;;;14.93;13.93;;;;;;;;;;4993988;28;20069;-69
2023/04/16 12:32:52;;;;;;;12.48;11.63;;;;;;;;;;5001133;28;20038;-69
2023/04/16 12:35:33;;;;;;;12.38;11.50;;;;;;;;;;4994636;28;20034;-69
2023/04/16 12:37:59;;;;;;;;;;;;;;;;;;4993137;28;20049;-69
2023/04/16 12:40:25;;;;;;;11.68;10.85;;;;;;;;;;4991587;28;20292;-68
2023/04/16 12:42:50;;;;;;;12.05;11.25;;;;;;;;;;4995751;28;20038;-68
2023/04/16 12:45:15;;;;;;;13.30;12.30;;;;;;;;;;4993065;28;20495;-68
2023/04/16 12:47:41;;;;;;;11.75;11.05;;;;;;;;;;5024310;28;20026;-69
2023/04/16 12:50:06;;;;;;;12.80;11.80;;;;;;;;;;5010468;28;20040;-68
2023/04/16 12:52:33;;;;;;;13.75;12.75;;;;;;;;;;4994447;28;20037;-68
2023/04/16 12:54:59;;;;;;;12.80;11.90;;;;;;;;;;4993275;28;20096;-68
2023/04/16 12:57:27;;;;;;;12.15;11.35;;;;;;;;;;4992598;28;20046;-64
2023/04/16 12:59:55;;;;;;;13.00;12.13;;;;;;;;;;4994002;28;20142;-68
2023/04/16 13:02:20;;;;;;;13.35;12.55;;;;;;;;;;5001225;28;20117;-68
2023/04/16 13:04:45;;;;;;;13.57;12.45;;;;;;;;;;4995894;28;20175;-68
2023/04/16 13:07:11;;;;;;;12.45;11.65;;;;;;;;;;4994766;28;20030;-69
2023/04/16 13:09:36;;;;;;;13.57;12.57;;;;;;;;;;4996737;28;20052;-69
2023/04/16 13:12:01;;;;;;;13.77;12.75;;;;;;;;;;4993124;28;20120;-68
2023/04/16 13:14:27;;;;;;;17.13;15.68;;;;;;;;;;4996301;28;20037;-68
2023/04/16 13:16:52;;;;;;;14.15;13.25;;;;;;;;;;4992085;28;20772;-68
2023/04/16 13:19:18;;;;;;;12.25;11.45;;;;;;;;;;4992277;28;20044;-68
2023/04/16 13:21:43;;;;;;;12.45;11.65;;;;;;;;;;4996887;28;20033;-66
2023/04/16 13:24:08;;;;;;;13.13;12.23;;;;;;;;;;4998097;28;20030;-68
2023/04/16 13:26:34;;;;;;;13.57;12.63;;;;;;;;;;4995295;28;20030;-68
2023/04/16 13:29:00;;;;;;;13.73;12.82;;;;;;;;;;4995934;28;20164;-67
2023/04/16 13:31:26;;;;;;;12.63;11.80;;;;;;;;;;4994944;28;20125;-67
2023/04/16 13:33:51;;;;;;;13.68;12.77;;;;;;;;;;4993288;28;20034;-68
2023/04/16 13:36:16;;;;;;;13.52;12.55;;;;;;;;;;4996867;28;20045;-68
2023/04/16 13:38:42;;;;;;;13.10;12.13;;;;;;;;;;4996168;28;20069;-64
2023/04/16 13:41:08;;;;;;;13.20;12.40;;;;;;;;;;4995420;28;20512;-64
2023/04/16 13:43:33;;;;;;;13.38;12.48;;;;;;;;;;4994860;28;20065;-63
2023/04/16 13:45:59;;;;;;;13.07;12.07;;;;;;;;;;4996202;28;20034;-63
2023/04/16 13:48:25;;;;;;;13.15;12.35;;;;;;;;;;4998814;28;20471;-67
2023/04/16 13:50:51;;;;;;;11.23;10.52;;;;;;;;;;4997275;28;20049;-68
2023/04/16 13:53:16;;;;;;;13.38;12.48;;;;;;;;;;5005332;28;20045;-68
2023/04/16 13:55:43;;;;;;;13.30;12.18;;;;;;;;;;4997600;28;20034;-67
2023/04/16 13:58:08;;;;;;;12.30;11.50;;;;;;;;;;4996564;28;20107;-67
2023/04/16 14:00:33;;;;;;;13.48;12.57;;;;;;;;;;4996314;28;20042;-67
2023/04/16 14:02:59;;;;;;;12.27;11.40;;;;;;;;;;5000539;28;20038;-68
2023/04/16 14:05:24;;;;;;;14.00;13.10;;;;;;;;;;4997133;28;20022;-67
2023/04/16 14:07:50;;;;;;;14.35;13.30;;;;;;;;;;4998072;28;20042;-67
2023/04/16 14:10:16;;;;;;;13.43;12.55;;;;;;;;;;4998754;28;20053;-68
2023/04/16 14:12:43;;;;;;;12.20;11.40;;;;;;;;;;4998081;28;20040;-67
2023/04/16 14:15:09;;;;;;;14.43;13.25;;;;;;;;;;4996018;28;20349;-67